createdAt,value
2022-09-28T00:00:10.075Z,67.99
2022-09-28T00:02:15.954Z,67.80
2022-09-28T00:04:18.435Z,67.66
2022-09-28T00:06:25.494Z,67.76
2022-09-28T00:08:30.689Z,68.30
2022-09-28T00:10:32.789Z,68.18
2022-09-28T00:12:35.450Z,68.05
2022-09-28T00:14:37.309Z,68.04
2022-09-28T00:16:43.789Z,67.85
2022-09-28T00:18:46.688Z,67.93
2022-09-28T00:20:50.855Z,67.95
2022-09-28T00:22:53.086Z,68.26
2022-09-28T00:24:55.407Z,68.28
2022-09-28T00:27:00.891Z,68.21
2022-09-28T00:29:03.345Z,68.05
2022-09-28T00:31:06.103Z,68.15
2022-09-28T00:33:08.215Z,68.25
2022-09-28T00:35:10.187Z,68.22
2022-09-28T00:37:13.992Z,67.76
2022-09-28T00:39:17.356Z,67.53
2022-09-28T00:41:19.463Z,67.73
2022-09-28T00:43:23.841Z,67.74
2022-09-28T00:45:27.069Z,67.87
2022-09-28T00:47:38.450Z,67.76
2022-09-28T00:49:45.749Z,67.51
2022-09-28T00:51:48.893Z,67.17
2022-09-28T00:53:51.793Z,67.31
2022-09-28T00:55:57.699Z,67.10
2022-09-28T00:58:02.043Z,66.58
2022-09-28T01:00:05.636Z,66.78
2022-09-28T01:02:10.499Z,66.83
2022-09-28T01:04:12.924Z,66.54
2022-09-28T01:06:23.610Z,66.36
2022-09-28T01:08:28.670Z,66.07
2022-09-28T01:10:31.752Z,66.11
2022-09-28T01:12:33.807Z,66.41
2022-09-28T01:14:36.331Z,65.94
2022-09-28T01:17:02.643Z,65.55
2022-09-28T01:19:35.871Z,65.32
2022-09-28T01:21:52.256Z,64.96
2022-09-28T01:24:42.210Z,64.35
2022-09-28T01:26:56.513Z,64.67
2022-09-28T01:29:12.565Z,64.64
2022-09-28T01:31:19.875Z,64.64
2022-09-28T01:33:31.737Z,64.09
2022-09-28T01:35:37.055Z,64.70
2022-09-28T01:37:44.692Z,64.64
2022-09-28T01:39:51.047Z,64.53
2022-09-28T01:41:57.741Z,64.33
2022-09-28T01:44:03.131Z,64.16
2022-09-28T01:46:20.478Z,64.43
2022-09-28T01:48:32.116Z,64.47
2022-09-28T01:50:39.922Z,64.47
2022-09-28T01:52:49.656Z,64.00
2022-09-28T01:55:10.114Z,63.95
2022-09-28T01:57:18.836Z,64.29
2022-09-28T01:59:28.171Z,64.59
2022-09-28T02:01:39.511Z,64.58
2022-09-28T02:03:51.236Z,64.43
2022-09-28T02:06:11.506Z,63.96
2022-09-28T02:08:18.155Z,64.43
2022-09-28T02:10:24.957Z,64.18
2022-09-28T02:12:39.473Z,63.95
2022-09-28T02:14:45.802Z,64.45
2022-09-28T02:16:51.158Z,64.25
2022-09-28T02:18:59.913Z,64.25
2022-09-28T02:21:22.099Z,64.19
2022-09-28T02:23:26.845Z,64.58
2022-09-28T02:25:40.295Z,64.46
2022-09-28T02:27:43.074Z,64.54
2022-09-28T02:29:45.341Z,64.18
2022-09-28T02:31:47.686Z,64.15
2022-09-28T02:33:51.822Z,64.29
2022-09-28T02:35:53.931Z,64.67
2022-09-28T02:37:57.987Z,64.51
2022-09-28T02:39:59.932Z,64.20
2022-09-28T02:42:26.019Z,64.18
2022-09-28T02:44:39.932Z,64.66
2022-09-28T02:46:45.260Z,64.29
2022-09-28T02:49:21.478Z,64.56
2022-09-28T02:52:22.057Z,64.04
2022-09-28T02:55:07.702Z,64.62
2022-09-28T02:57:39.645Z,64.67
2022-09-28T02:59:53.243Z,64.58
2022-09-28T03:02:10.017Z,64.39
2022-09-28T03:04:36.756Z,64.63
2022-09-28T03:06:55.014Z,64.41
2022-09-28T03:09:08.025Z,64.78
2022-09-28T03:11:22.585Z,64.16
2022-09-28T03:13:28.914Z,64.17
2022-09-28T03:15:33.185Z,64.21
2022-09-28T03:17:35.903Z,64.26
2022-09-28T03:19:38.122Z,63.93
2022-09-28T03:21:40.471Z,63.96
2022-09-28T03:23:42.978Z,63.96
2022-09-28T03:25:45.524Z,63.82
2022-09-28T03:27:47.911Z,63.81
2022-09-28T03:29:50.996Z,63.78
2022-09-28T03:31:53.692Z,63.94
2022-09-28T03:33:56.502Z,63.82
2022-09-28T03:35:59.074Z,64.10
2022-09-28T03:38:01.731Z,64.32
2022-09-28T03:40:06.908Z,64.07
2022-09-28T03:42:09.035Z,64.60
2022-09-28T03:44:14.650Z,64.40
2022-09-28T03:46:17.237Z,64.07
2022-09-28T03:48:29.867Z,64.55
2022-09-28T03:50:34.174Z,64.56
2022-09-28T03:52:36.283Z,64.59
2022-09-28T03:54:38.555Z,64.46
2022-09-28T03:56:41.476Z,64.22
2022-09-28T03:58:43.911Z,64.29
2022-09-28T04:00:48.484Z,64.63
2022-09-28T04:02:50.491Z,64.50
2022-09-28T04:04:52.586Z,64.63
2022-09-28T04:06:55.235Z,64.98
2022-09-28T04:08:57.661Z,65.13
2022-09-28T04:11:01.717Z,64.94
2022-09-28T04:13:04.936Z,65.26
2022-09-28T04:15:07.920Z,65.00
2022-09-28T04:17:10.031Z,64.90
2022-09-28T04:19:12.213Z,64.76
2022-09-28T04:21:32.879Z,64.83
2022-09-28T04:23:43.001Z,64.92
2022-09-28T04:25:52.328Z,64.70
2022-09-28T04:28:13.266Z,64.81
2022-09-28T04:30:15.755Z,64.77
2022-09-28T04:32:20.222Z,64.86
2022-09-28T04:34:23.266Z,64.57
2022-09-28T04:36:25.446Z,64.51
2022-09-28T04:38:51.319Z,64.63
2022-09-28T04:40:50.000Z,64.68
2022-09-28T04:42:56.163Z,64.93
2022-09-28T04:45:01.045Z,64.94
2022-09-28T04:47:05.322Z,65.06
2022-09-28T04:49:09.855Z,64.22
2022-09-28T04:51:25.481Z,64.01
2022-09-28T04:53:28.189Z,64.04
2022-09-28T04:55:32.591Z,63.96
2022-09-28T04:57:35.688Z,64.28
2022-09-28T04:59:37.895Z,64.12
2022-09-28T05:01:40.152Z,64.14
2022-09-28T05:04:00.476Z,64.31
2022-09-28T05:06:18.646Z,64.17
2022-09-28T05:08:22.943Z,64.72
2022-09-28T05:10:25.346Z,64.68
2022-09-28T05:12:30.887Z,64.72
2022-09-28T05:14:34.327Z,64.48
2022-09-28T05:16:36.132Z,64.71
2022-09-28T05:18:57.918Z,64.50
2022-09-28T05:21:02.349Z,64.82
2022-09-28T05:23:04.367Z,64.86
2022-09-28T05:25:07.462Z,65.00
2022-09-28T05:27:21.771Z,64.61
2022-09-28T05:29:33.676Z,64.58
2022-09-28T05:31:54.204Z,64.70
2022-09-28T05:34:22.133Z,64.45
2022-09-28T05:36:26.835Z,64.44
2022-09-28T05:38:30.451Z,64.52
2022-09-28T05:40:32.740Z,64.50
2022-09-28T05:42:34.693Z,64.42
2022-09-28T05:44:38.550Z,64.14
2022-09-28T05:46:40.902Z,64.25
2022-09-28T05:48:44.620Z,64.18
2022-09-28T05:50:53.992Z,64.31
2022-09-28T05:53:06.869Z,64.65
2022-09-28T05:55:09.762Z,64.52
2022-09-28T05:57:12.495Z,64.47
2022-09-28T05:59:14.916Z,64.55
2022-09-28T06:01:19.388Z,64.59
2022-09-28T06:03:22.432Z,64.46
2022-09-28T06:05:25.049Z,64.48
2022-09-28T06:07:27.117Z,64.49
2022-09-28T06:09:30.547Z,64.54
2022-09-28T06:11:58.276Z,64.67
2022-09-28T06:14:08.355Z,64.78
2022-09-28T06:16:15.325Z,64.13
2022-09-28T06:18:17.969Z,63.92
2022-09-28T06:20:42.936Z,63.72
2022-09-28T06:23:04.313Z,64.13
2022-09-28T06:25:07.221Z,64.27
2022-09-28T06:27:09.465Z,64.00
2022-09-28T06:29:19.233Z,64.18
2022-09-28T06:31:24.051Z,64.62
2022-09-28T06:33:26.887Z,64.73
2022-09-28T06:35:30.823Z,63.67
2022-09-28T06:37:33.508Z,64.08
2022-09-28T06:39:37.213Z,64.32
2022-09-28T06:41:41.810Z,64.35
2022-09-28T06:43:49.494Z,64.14
2022-09-28T06:46:00.403Z,64.31
2022-09-28T06:48:20.759Z,64.17
2022-09-28T06:50:24.419Z,64.10
2022-09-28T06:52:44.290Z,63.81
2022-09-28T06:54:59.296Z,64.01
2022-09-28T06:57:12.207Z,63.60
2022-09-28T06:59:14.047Z,63.71
2022-09-28T07:01:16.253Z,63.52
2022-09-28T07:03:30.962Z,63.12
2022-09-28T07:05:54.318Z,63.06
2022-09-28T07:08:19.837Z,62.70
2022-09-28T07:10:42.906Z,62.56
2022-09-28T07:13:01.556Z,62.70
2022-09-28T07:15:09.416Z,61.54
2022-09-28T07:17:13.997Z,61.29
2022-09-28T07:19:17.805Z,60.70
2022-09-28T07:21:28.991Z,61.03
2022-09-28T07:23:47.622Z,60.69
2022-09-28T07:26:07.797Z,60.01
2022-09-28T07:28:30.727Z,60.56
2022-09-28T07:30:52.951Z,60.59
2022-09-28T07:33:15.981Z,60.04
2022-09-28T07:35:27.590Z,60.09
2022-09-28T07:37:31.725Z,60.22
2022-09-28T07:39:54.205Z,60.24
2022-09-28T07:42:02.434Z,59.83
2022-09-28T07:44:07.557Z,59.88
2022-09-28T07:46:12.586Z,59.73
2022-09-28T07:48:20.477Z,59.60
2022-09-28T07:50:36.356Z,59.38
2022-09-28T07:52:49.377Z,59.69
2022-09-28T07:55:03.336Z,60.46
2022-09-28T07:57:31.224Z,60.71
2022-09-28T07:59:56.532Z,60.34
2022-09-28T08:02:20.280Z,60.62
2022-09-28T08:04:23.915Z,59.65
2022-09-28T08:06:26.437Z,59.72
2022-09-28T08:08:30.517Z,59.84
2022-09-28T08:10:33.774Z,59.95
2022-09-28T08:13:03.043Z,59.66
2022-09-28T08:15:23.796Z,60.04
2022-09-28T08:17:52.681Z,59.82
2022-09-28T08:20:16.470Z,60.06
2022-09-28T08:22:29.556Z,60.01
2022-09-28T08:24:32.471Z,59.66
2022-09-28T08:26:35.301Z,59.93
2022-09-28T08:28:39.264Z,59.23
2022-09-28T08:31:04.873Z,59.30
2022-09-28T08:33:07.923Z,58.84
2022-09-28T08:35:19.206Z,59.03
2022-09-28T08:37:39.757Z,58.53
2022-09-28T08:40:28.425Z,58.55
2022-09-28T08:42:45.803Z,58.52
2022-09-28T08:45:05.733Z,57.46
2022-09-28T08:47:54.027Z,57.70
2022-09-28T08:50:05.454Z,58.11
2022-09-28T08:52:26.676Z,57.40
2022-09-28T08:55:00.460Z,56.36
2022-09-28T08:57:24.083Z,56.04
2022-09-28T08:59:35.375Z,56.78
2022-09-28T09:01:49.511Z,56.94
2022-09-28T09:03:55.982Z,57.33
2022-09-28T09:06:58.071Z,56.52
2022-09-28T09:09:43.226Z,56.48
2022-09-28T09:12:21.452Z,55.25
2022-09-28T09:14:34.695Z,56.82
2022-09-28T09:16:45.870Z,56.49
2022-09-28T09:19:34.485Z,55.62
2022-09-28T09:21:50.943Z,55.81
2022-09-28T09:24:01.671Z,56.29
2022-09-28T09:26:40.549Z,54.19
2022-09-28T09:29:48.764Z,53.93
2022-09-28T09:32:16.361Z,54.15
2022-09-28T09:34:27.369Z,52.74
2022-09-28T09:37:29.422Z,53.58
2022-09-28T09:40:31.463Z,54.35
2022-09-28T09:43:11.334Z,55.43
2022-09-28T09:45:31.469Z,53.42
2022-09-28T09:48:21.308Z,52.28
2022-09-28T09:50:39.782Z,52.28
2022-09-28T09:52:55.890Z,52.39
2022-09-28T09:54:58.095Z,52.68
2022-09-28T09:57:32.943Z,51.84
2022-09-28T09:59:42.023Z,51.81
2022-09-28T10:02:26.451Z,48.42
2022-09-28T10:04:43.375Z,49.85
2022-09-28T10:06:59.911Z,45.74
2022-09-28T10:09:06.231Z,49.18
2022-09-28T10:11:42.195Z,48.33
2022-09-28T10:13:49.762Z,49.36
2022-09-28T10:16:16.292Z,50.51
2022-09-28T10:18:30.384Z,50.48
2022-09-28T10:20:53.199Z,49.97
2022-09-28T10:23:30.328Z,50.46
2022-09-28T10:25:36.672Z,49.57
2022-09-28T10:27:45.672Z,48.76
2022-09-28T10:30:13.147Z,47.07
2022-09-28T10:32:26.945Z,48.04
2022-09-28T10:34:35.800Z,49.12
2022-09-28T10:37:01.689Z,48.06
2022-09-28T10:39:33.093Z,48.72
2022-09-28T10:41:50.215Z,47.57
2022-09-28T10:44:06.975Z,48.25
2022-09-28T10:46:24.137Z,44.88
2022-09-28T10:48:36.319Z,47.03
2022-09-28T10:50:40.858Z,47.93
2022-09-28T10:52:47.505Z,47.94
2022-09-28T10:55:32.231Z,47.30
2022-09-28T10:57:37.441Z,47.03
2022-09-28T10:59:42.662Z,46.83
2022-09-28T11:02:22.349Z,42.78
2022-09-28T11:04:38.780Z,43.22
2022-09-28T11:06:42.016Z,46.46
2022-09-28T11:08:50.634Z,45.65
2022-09-28T11:11:12.705Z,45.24
2022-09-28T11:13:14.923Z,45.11
2022-09-28T11:15:30.802Z,45.73
2022-09-28T11:17:40.767Z,46.27
2022-09-28T11:19:46.111Z,46.83
2022-09-28T11:21:51.238Z,42.93
2022-09-28T11:23:58.885Z,43.95
2022-09-28T11:26:07.314Z,43.79
2022-09-28T11:28:25.861Z,41.87
2022-09-28T11:30:29.534Z,44.47
2022-09-28T11:33:04.061Z,44.47
2022-09-28T11:35:36.570Z,43.68
2022-09-28T11:37:51.348Z,44.21
2022-09-28T11:40:42.544Z,44.60
2022-09-28T11:43:16.763Z,43.42
2022-09-28T11:45:52.659Z,44.92
2022-09-28T11:48:04.869Z,44.78
2022-09-28T11:50:23.865Z,41.08
2022-09-28T11:52:35.403Z,42.53
2022-09-28T11:54:51.949Z,42.33
2022-09-28T11:56:55.602Z,43.92
2022-09-28T11:59:12.785Z,44.11
2022-09-28T12:01:25.612Z,44.38
2022-09-28T12:03:52.963Z,43.95
2022-09-28T12:06:05.518Z,42.69
2022-09-28T12:08:22.780Z,43.60
2022-09-28T12:11:05.619Z,41.23
2022-09-28T12:13:34.481Z,43.03
2022-09-28T12:16:27.639Z,42.13
2022-09-28T12:18:28.767Z,43.28
2022-09-28T12:20:39.390Z,42.63
2022-09-28T12:22:48.446Z,43.70
2022-09-28T12:24:55.690Z,42.07
2022-09-28T12:27:16.762Z,43.33
2022-09-28T12:29:24.434Z,43.15
2022-09-28T12:31:49.577Z,40.90
2022-09-28T12:33:52.662Z,39.95
2022-09-28T12:36:18.997Z,38.59
2022-09-28T12:38:43.323Z,38.94
2022-09-28T12:40:55.941Z,39.63
2022-09-28T12:43:41.099Z,38.11
2022-09-28T12:46:18.472Z,38.21
2022-09-28T12:48:27.109Z,40.52
2022-09-28T12:50:54.708Z,40.63
2022-09-28T12:53:33.541Z,37.70
2022-09-28T12:55:56.791Z,39.01
2022-09-28T12:58:16.876Z,39.82
2022-09-28T13:00:24.796Z,39.93
2022-09-28T13:03:07.300Z,37.74
2022-09-28T13:05:29.622Z,37.74
2022-09-28T13:07:59.819Z,40.18
2022-09-28T13:10:14.173Z,40.18
2022-09-28T13:12:42.789Z,38.60
2022-09-28T13:15:10.048Z,39.32
2022-09-28T13:17:21.489Z,38.83
2022-09-28T13:19:59.529Z,39.93
2022-09-28T13:22:17.109Z,38.50
2022-09-28T13:24:34.089Z,38.95
2022-09-28T13:26:47.218Z,38.37
2022-09-28T13:28:54.889Z,39.41
2022-09-28T13:31:00.619Z,39.65
2022-09-28T13:33:06.201Z,39.82
2022-09-28T13:35:15.185Z,38.34
2022-09-28T13:37:17.279Z,38.20
2022-09-28T13:39:53.076Z,37.03
2022-09-28T13:41:56.262Z,38.75
2022-09-28T13:44:24.712Z,36.20
2022-09-28T13:46:26.897Z,37.45
2022-09-28T13:49:03.621Z,37.26
2022-09-28T13:51:22.395Z,38.80
2022-09-28T13:53:36.594Z,37.99
2022-09-28T13:56:04.670Z,38.42
2022-09-28T13:58:27.098Z,38.40
2022-09-28T14:00:53.983Z,38.42
2022-09-28T14:03:06.842Z,36.18
2022-09-28T14:05:23.805Z,36.87
2022-09-28T14:07:47.282Z,37.57
2022-09-28T14:10:08.241Z,37.54
2022-09-28T14:12:28.883Z,37.71
2022-09-28T14:14:50.029Z,38.53
2022-09-28T14:17:21.177Z,37.98
2022-09-28T14:19:27.955Z,38.75
2022-09-28T14:22:03.310Z,39.18
2022-09-28T14:24:20.852Z,38.72
2022-09-28T14:26:42.080Z,38.08
2022-09-28T14:28:57.028Z,38.84
2022-09-28T14:31:12.012Z,39.30
2022-09-28T14:33:30.849Z,38.72
2022-09-28T14:35:43.478Z,38.47
2022-09-28T14:38:08.140Z,38.52
2022-09-28T14:40:40.504Z,38.14
2022-09-28T14:43:25.646Z,38.60
2022-09-28T14:45:36.601Z,38.99
2022-09-28T14:47:43.666Z,38.53
2022-09-28T14:49:51.651Z,38.62
2022-09-28T14:52:20.742Z,37.03
2022-09-28T14:54:54.033Z,37.90
2022-09-28T14:57:08.310Z,38.45
2022-09-28T14:59:19.535Z,37.52
2022-09-28T15:01:24.871Z,38.40
2022-09-28T15:03:30.548Z,38.61
2022-09-28T15:05:44.335Z,37.34
2022-09-28T15:07:52.468Z,38.46
2022-09-28T15:09:57.645Z,38.52
2022-09-28T15:12:22.451Z,38.17
2022-09-28T15:14:25.086Z,38.79
2022-09-28T15:16:31.205Z,38.66
2022-09-28T15:18:48.218Z,38.74
2022-09-28T15:20:50.759Z,39.23
2022-09-28T15:22:58.682Z,38.58
2022-09-28T15:25:03.150Z,39.11
2022-09-28T15:27:15.921Z,39.52
2022-09-28T15:29:19.688Z,39.59
2022-09-28T15:31:26.439Z,39.68
2022-09-28T15:33:49.634Z,40.13
2022-09-28T15:36:08.263Z,40.17
2022-09-28T15:38:18.398Z,40.41
2022-09-28T15:40:37.527Z,40.93
2022-09-28T15:42:39.723Z,40.83
2022-09-28T15:44:45.982Z,40.80
2022-09-28T15:46:50.783Z,41.46
2022-09-28T15:48:56.457Z,40.98
2022-09-28T15:51:05.229Z,41.02
2022-09-28T15:53:07.340Z,40.96
2022-09-28T15:55:18.798Z,40.82
2022-09-28T15:57:38.351Z,40.87
2022-09-28T15:59:41.475Z,41.64
2022-09-28T16:01:45.369Z,41.87
2022-09-28T16:03:47.544Z,42.41
2022-09-28T16:06:05.415Z,42.85
2022-09-28T16:08:21.466Z,42.80
2022-09-28T16:10:36.074Z,43.37
2022-09-28T16:12:38.072Z,42.90
2022-09-28T16:14:40.173Z,42.83
2022-09-28T16:16:50.482Z,43.74
2022-09-28T16:18:55.477Z,43.55
2022-09-28T16:21:20.568Z,44.15
2022-09-28T16:23:27.138Z,44.62
2022-09-28T16:25:29.194Z,43.97
2022-09-28T16:27:41.496Z,43.43
2022-09-28T16:29:45.316Z,43.96
2022-09-28T16:31:52.938Z,44.09
2022-09-28T16:33:56.156Z,44.24
2022-09-28T16:36:03.321Z,44.58
2022-09-28T16:38:16.609Z,43.94
2022-09-28T16:40:18.807Z,44.06
2022-09-28T16:42:20.800Z,43.95
2022-09-28T16:44:31.231Z,43.90
2022-09-28T16:46:37.737Z,44.16
2022-09-28T16:48:51.166Z,44.82
2022-09-28T16:50:53.855Z,44.39
2022-09-28T16:53:30.883Z,45.34
2022-09-28T16:55:40.646Z,44.65
2022-09-28T16:57:45.793Z,44.83
2022-09-28T16:59:48.100Z,44.53
2022-09-28T17:01:50.448Z,44.53
2022-09-28T17:03:52.915Z,44.35
2022-09-28T17:05:55.901Z,45.34
2022-09-28T17:08:02.115Z,45.42
2022-09-28T17:10:15.625Z,45.90
2022-09-28T17:12:24.666Z,46.39
2022-09-28T17:14:26.786Z,45.96
2022-09-28T17:16:59.893Z,46.43
2022-09-28T17:18:55.753Z,46.02
2022-09-28T17:21:03.555Z,45.75
2022-09-28T17:23:05.981Z,45.92
2022-09-28T17:25:12.725Z,45.68
2022-09-28T17:27:19.826Z,47.07
2022-09-28T17:29:22.471Z,46.33
2022-09-28T17:31:24.801Z,46.58
2022-09-28T17:33:26.921Z,46.78
2022-09-28T17:35:29.489Z,46.82
2022-09-28T17:37:34.628Z,46.87
2022-09-28T17:39:39.036Z,46.79
2022-09-28T17:41:41.385Z,47.10
2022-09-28T17:43:44.015Z,47.34
2022-09-28T17:45:47.777Z,47.54
2022-09-28T17:47:49.991Z,47.48
2022-09-28T17:49:53.958Z,47.63
2022-09-28T17:51:56.110Z,47.71
2022-09-28T17:54:01.256Z,48.09
2022-09-28T17:56:03.690Z,48.09
2022-09-28T17:58:22.729Z,49.06
2022-09-28T18:00:27.563Z,48.74
2022-09-28T18:02:29.641Z,48.77
2022-09-28T18:04:51.282Z,48.66
2022-09-28T18:06:54.116Z,49.25
2022-09-28T18:08:56.156Z,48.99
2022-09-28T18:10:58.386Z,49.55
2022-09-28T18:13:00.263Z,49.32
2022-09-28T18:15:02.163Z,49.89
2022-09-28T18:17:04.506Z,50.59
2022-09-28T18:19:06.404Z,50.61
2022-09-28T18:21:38.968Z,52.43
2022-09-28T18:23:41.512Z,50.90
2022-09-28T18:25:44.949Z,50.58
2022-09-28T18:27:46.966Z,50.26
2022-09-28T18:30:14.540Z,50.47
2022-09-28T18:32:16.548Z,50.50
2022-09-28T18:34:18.488Z,50.70
2022-09-28T18:36:20.461Z,51.16
2022-09-28T18:38:22.540Z,51.19
2022-09-28T18:40:24.735Z,51.03
2022-09-28T18:42:26.635Z,50.90
2022-09-28T18:44:31.338Z,50.93
2022-09-28T18:46:36.752Z,50.81
2022-09-28T18:48:40.634Z,51.14
2022-09-28T18:50:43.097Z,51.09
2022-09-28T18:52:47.282Z,51.48
2022-09-28T18:54:50.814Z,51.83
2022-09-28T18:56:57.308Z,52.30
2022-09-28T18:59:00.133Z,51.71
2022-09-28T19:01:28.939Z,52.13
2022-09-28T19:03:32.138Z,52.12
2022-09-28T19:05:35.184Z,52.90
2022-09-28T19:07:37.181Z,53.38
2022-09-28T19:09:44.071Z,53.21
2022-09-28T19:11:46.553Z,53.94
2022-09-28T19:13:48.524Z,53.16
2022-09-28T19:15:50.455Z,53.21
2022-09-28T19:17:52.599Z,52.55
2022-09-28T19:19:54.708Z,53.49
2022-09-28T19:21:56.556Z,53.11
2022-09-28T19:24:02.630Z,53.77
2022-09-28T19:26:13.748Z,54.53
2022-09-28T19:28:15.502Z,53.80
2022-09-28T19:30:17.406Z,53.86
2022-09-28T19:32:19.490Z,53.71
2022-09-28T19:34:24.415Z,53.72
2022-09-28T19:36:28.618Z,53.39
2022-09-28T19:38:32.635Z,53.22
2022-09-28T19:40:37.183Z,53.08
2022-09-28T19:42:40.130Z,52.71
2022-09-28T19:44:42.522Z,52.71
2022-09-28T19:46:45.264Z,52.62
2022-09-28T19:48:48.664Z,52.69
2022-09-28T19:51:03.626Z,53.32
2022-09-28T19:53:07.353Z,52.99
2022-09-28T19:55:10.161Z,53.09
2022-09-28T19:57:14.680Z,53.37
2022-09-28T19:59:16.887Z,54.08
2022-09-28T20:01:19.121Z,54.21
2022-09-28T20:03:21.240Z,54.87
2022-09-28T20:05:23.337Z,54.65
2022-09-28T20:07:25.426Z,54.89
2022-09-28T20:09:27.667Z,55.38
2022-09-28T20:11:31.695Z,55.37
2022-09-28T20:13:39.194Z,55.44
2022-09-28T20:15:41.838Z,54.89
2022-09-28T20:17:44.285Z,55.22
2022-09-28T20:19:47.288Z,54.53
2022-09-28T20:21:50.546Z,54.90
2022-09-28T20:23:57.676Z,54.98
2022-09-28T20:25:59.771Z,55.24
2022-09-28T20:28:02.335Z,55.29
2022-09-28T20:30:05.317Z,55.47
2022-09-28T20:32:07.499Z,55.93
2022-09-28T20:34:09.850Z,55.42
2022-09-28T20:36:17.699Z,55.38
2022-09-28T20:38:19.629Z,55.50
2022-09-28T20:40:23.121Z,55.87
2022-09-28T20:42:27.657Z,55.74
2022-09-28T20:44:29.748Z,55.89
2022-09-28T20:46:31.956Z,55.87
2022-09-28T20:48:35.106Z,56.16
2022-09-28T20:50:37.130Z,56.40
2022-09-28T20:52:39.141Z,55.98
2022-09-28T20:54:41.419Z,55.79
2022-09-28T20:56:43.571Z,55.70
2022-09-28T20:58:46.381Z,55.66
2022-09-28T21:00:48.538Z,55.33
2022-09-28T21:02:53.887Z,56.42
2022-09-28T21:04:56.191Z,55.73
2022-09-28T21:06:58.432Z,55.81
2022-09-28T21:09:01.311Z,56.39
2022-09-28T21:11:03.312Z,56.14
2022-09-28T21:13:05.753Z,56.39
2022-09-28T21:15:08.216Z,56.10
2022-09-28T21:17:11.841Z,55.97
2022-09-28T21:19:13.847Z,55.83
2022-09-28T21:21:18.294Z,56.47
2022-09-28T21:23:25.041Z,56.46
2022-09-28T21:25:27.390Z,56.71
2022-09-28T21:27:29.219Z,56.46
2022-09-28T21:29:31.195Z,56.45
2022-09-28T21:31:47.271Z,57.39
2022-09-28T21:33:49.851Z,56.71
2022-09-28T21:35:51.966Z,56.53
2022-09-28T21:37:56.491Z,57.34
2022-09-28T21:39:59.648Z,57.24
2022-09-28T21:42:01.870Z,57.13
2022-09-28T21:44:03.913Z,57.67
2022-09-28T21:46:06.213Z,57.16
2022-09-28T21:48:08.265Z,57.67
2022-09-28T21:50:10.250Z,57.42
2022-09-28T21:52:12.374Z,57.15
2022-09-28T21:54:15.367Z,57.33
2022-09-28T21:56:17.696Z,57.35
2022-09-28T21:58:25.516Z,58.57
2022-09-28T22:00:27.901Z,58.06
2022-09-28T22:02:30.902Z,57.86
2022-09-28T22:04:32.968Z,58.70
2022-09-28T22:06:35.668Z,58.64
2022-09-28T22:08:38.079Z,58.44
2022-09-28T22:10:40.099Z,58.48
2022-09-28T22:12:42.241Z,58.62
2022-09-28T22:14:44.186Z,58.68
2022-09-28T22:16:46.392Z,59.14
2022-09-28T22:18:49.129Z,58.81
2022-09-28T22:21:01.798Z,59.20
2022-09-28T22:23:03.747Z,58.88
2022-09-28T22:25:06.386Z,58.50
2022-09-28T22:27:08.445Z,58.86
2022-09-28T22:29:11.039Z,58.62
2022-09-28T22:31:14.753Z,58.32
2022-09-28T22:33:17.027Z,58.32
2022-09-28T22:35:19.117Z,58.12
2022-09-28T22:37:21.637Z,58.26
2022-09-28T22:39:23.825Z,58.37
2022-09-28T22:41:26.761Z,58.53
2022-09-28T22:43:28.925Z,58.71
2022-09-28T22:45:31.086Z,59.05
2022-09-28T22:47:33.162Z,58.82
2022-09-28T22:49:35.333Z,59.17
2022-09-28T22:51:37.600Z,59.84
2022-09-28T22:53:39.697Z,60.12
2022-09-28T22:55:42.372Z,60.10
2022-09-28T22:57:44.547Z,59.89
2022-09-28T22:59:46.918Z,60.30
2022-09-28T23:01:49.210Z,60.95
2022-09-28T23:03:52.968Z,62.09
2022-09-28T23:05:57.107Z,60.78
2022-09-28T23:07:59.351Z,62.21
2022-09-28T23:10:01.834Z,61.29
2022-09-28T23:12:04.211Z,60.82
2022-09-28T23:14:06.717Z,61.27
2022-09-28T23:16:12.050Z,61.34
2022-09-28T23:18:14.531Z,61.16
2022-09-28T23:20:17.124Z,61.01
2022-09-28T23:22:22.047Z,61.82
2022-09-28T23:24:24.207Z,61.25
2022-09-28T23:26:29.724Z,61.13
2022-09-28T23:28:31.829Z,61.58
2022-09-28T23:30:34.276Z,61.70
2022-09-28T23:32:37.294Z,61.54
2022-09-28T23:34:40.694Z,61.52
2022-09-28T23:36:42.949Z,61.17
2022-09-28T23:38:45.224Z,61.22
2022-09-28T23:40:47.717Z,61.56
2022-09-28T23:42:49.819Z,61.53
2022-09-28T23:44:51.989Z,62.29
2022-09-28T23:46:54.705Z,62.03
2022-09-28T23:48:57.116Z,61.92
2022-09-28T23:50:59.334Z,62.16
2022-09-28T23:53:01.308Z,62.07
2022-09-28T23:55:03.798Z,61.80
2022-09-28T23:57:06.401Z,61.92
2022-09-28T23:59:08.535Z,62.18
